Time;durP1;ratioP1;P1;durP2;ratioP2;P2;SDS_P1;SDS_P2;PMS_P1;PMS_P2;Temp;Humidity;BMP_temperature;BMP_pressure;BME280_temperature;BME280_humidity;BME280_pressure;Samples;Min_cycle;Max_cycle;Signal;HPM_P1;HPM_P2
2023/11/27 00:00:51;;;;;;;15.53;9.00;;;;;4.60;100479.00;;;;10057440;29;20297;-82
2023/11/27 00:05:52;;;;;;;15.67;9.53;;;;;4.50;100476.00;;;;10082984;29;20223;-82
2023/11/27 00:10:53;;;;;;;13.33;8.77;;;;;4.40;100467.00;;;;10080500;29;20315;-82
2023/11/27 00:15:54;;;;;;;15.77;8.80;;;;;4.30;100464.00;;;;10072077;29;20261;-81
2023/11/27 00:20:56;;;;;;;16.97;9.57;;;;;4.20;100453.00;;;;10075456;29;20675;-82
2023/11/27 00:25:57;;;;;;;12.27;7.33;;;;;4.20;100436.00;;;;10063021;29;20275;-82
2023/11/27 00:30:58;;;;;;;14.33;9.17;;;;;4.10;100420.00;;;;10076879;29;20250;-80
2023/11/27 00:35:59;;;;;;;14.90;8.83;;;;;4.10;100413.00;;;;10069110;29;20223;-80
2023/11/27 00:41:01;;;;;;;9.93;8.53;;;;;4.00;100395.00;;;;10086257;29;20655;-80
2023/11/27 00:46:02;;;;;;;14.50;8.57;;;;;4.00;100390.00;;;;10077877;29;20223;-81
2023/11/27 00:51:07;;;;;;;13.67;9.33;;;;;4.00;100383.00;;;;10083773;29;20219;-80
2023/11/27 00:56:08;;;;;;;14.43;6.67;;;;;4.00;100368.00;;;;10084350;29;20232;-81
2023/11/27 01:01:10;;;;;;;14.37;8.03;;;;;3.90;100362.00;;;;10066824;29;20238;-80
2023/11/27 01:06:12;;;;;;;15.40;7.43;;;;;4.00;100347.00;;;;10090018;29;20227;-80
2023/11/27 01:11:14;;;;;;;13.93;8.27;;;;;3.90;100336.00;;;;10067033;29;20724;-81
2023/11/27 01:16:15;;;;;;;12.23;7.87;;;;;3.90;100321.00;;;;10071728;29;20315;-80
2023/11/27 01:21:17;;;;;;;16.47;7.50;;;;;3.90;100309.00;;;;10042849;29;20284;-79
2023/11/27 01:26:18;;;;;;;11.60;7.37;;;;;3.90;100308.00;;;;10069209;29;20271;-80
2023/11/27 01:31:19;;;;;;;10.43;6.73;;;;;3.90;100294.00;;;;10077643;29;20248;-81
2023/11/27 01:36:21;;;;;;;12.43;7.17;;;;;3.90;100292.00;;;;10066778;29;20857;-81
2023/11/27 01:41:22;;;;;;;14.63;6.37;;;;;3.90;100284.00;;;;10081806;29;20243;-80
2023/11/27 01:46:26;;;;;;;11.80;6.97;;;;;3.90;100273.00;;;;10071974;29;20247;-80
2023/11/27 01:51:29;;;;;;;8.93;5.93;;;;;3.90;100260.00;;;;10067817;29;20235;-81
2023/11/27 01:56:31;;;;;;;9.03;6.73;;;;;3.80;100253.00;;;;10085760;29;20287;-80
2023/11/27 02:01:33;;;;;;;8.37;7.07;;;;;3.80;100243.00;;;;10057075;29;20236;-81
2023/11/27 02:06:34;;;;;;;13.13;6.73;;;;;3.80;100221.00;;;;10059765;29;20215;-80
2023/11/27 02:11:49;;;;;;;7.57;5.53;;;;;3.80;100208.00;;;;10077850;29;20251;-80
2023/11/27 02:16:50;;;;;;;13.17;6.60;;;;;3.80;100189.00;;;;10061881;29;20223;-80
2023/11/27 02:21:52;;;;;;;14.90;7.30;;;;;3.70;100171.00;;;;10088293;29;20219;-80
2023/11/27 02:26:53;;;;;;;8.17;6.57;;;;;3.70;100155.00;;;;10115527;29;20227;-81
2023/11/27 02:31:54;;;;;;;9.80;6.47;;;;;3.70;100147.00;;;;10067074;29;20302;-81
2023/11/27 02:36:56;;;;;;;8.83;6.30;;;;;3.70;100141.00;;;;10085922;29;20287;-80
2023/11/27 02:41:57;;;;;;;10.50;5.90;;;;;3.70;100116.00;;;;10070839;29;20279;-81
2023/11/27 02:46:58;;;;;;;14.97;6.70;;;;;3.70;100124.00;;;;10077228;29;20212;-81
2023/11/27 02:52:00;;;;;;;12.07;6.53;;;;;3.70;100089.00;;;;10065641;29;20233;-80
2023/11/27 02:57:03;;;;;;;9.07;6.63;;;;;3.70;100074.00;;;;10067217;29;20223;-80
2023/11/27 03:02:04;;;;;;;7.93;5.60;;;;;3.70;100063.00;;;;10062187;29;20227;-80
2023/11/27 03:07:05;;;;;;;10.43;3.83;;;;;3.70;100047.00;;;;10070264;29;20229;-79
2023/11/27 03:12:07;;;;;;;7.40;4.83;;;;;3.70;100052.00;;;;10074956;29;20290;-80
2023/11/27 03:17:08;;;;;;;14.67;6.33;;;;;3.70;100020.00;;;;10081524;29;20343;-80
2023/11/27 03:22:09;;;;;;;10.40;5.23;;;;;3.70;99999.00;;;;10085857;29;20259;-80
2023/11/27 03:27:10;;;;;;;12.97;6.60;;;;;3.70;99983.00;;;;10067252;29;20227;-80
2023/11/27 03:32:12;;;;;;;9.87;5.53;;;;;3.70;99977.00;;;;10068572;29;20705;-80
2023/11/27 03:37:13;;;;;;;7.83;5.73;;;;;3.80;99968.00;;;;10072774;29;20242;-80
2023/11/27 03:42:14;;;;;;;7.70;4.83;;;;;3.80;99936.00;;;;10101163;29;20226;-81
2023/11/27 03:47:15;;;;;;;9.00;5.77;;;;;3.90;99917.00;;;;10087344;29;20231;-80
2023/11/27 03:52:17;;;;;;;8.07;5.73;;;;;3.90;99908.00;;;;10068699;29;20231;-80
2023/11/27 03:57:19;;;;;;;8.80;6.13;;;;;3.90;99907.00;;;;10103559;29;20234;-80
2023/11/27 04:02:20;;;;;;;12.13;5.47;;;;;4.00;99893.00;;;;10079469;29;20222;-81
2023/11/27 04:07:22;;;;;;;10.43;5.77;;;;;4.00;99872.00;;;;10077297;29;20898;-81
2023/11/27 04:12:23;;;;;;;9.20;5.17;;;;;4.00;99863.00;;;;10101589;29;20836;-81
2023/11/27 04:17:24;;;;;;;7.83;5.00;;;;;4.00;99857.00;;;;10067351;29;20236;-80
2023/11/27 04:22:26;;;;;;;8.57;4.80;;;;;4.00;99846.00;;;;10087129;29;20250;-80
2023/11/27 04:27:28;;;;;;;7.90;4.97;;;;;4.00;99835.00;;;;10078874;29;20906;-80
2023/11/27 04:32:29;;;;;;;10.70;5.93;;;;;4.00;99822.00;;;;10060497;29;20302;-80
2023/11/27 04:37:31;;;;;;;7.90;4.80;;;;;4.00;99798.00;;;;10084999;29;20303;-80
2023/11/27 04:42:33;;;;;;;6.43;5.27;;;;;4.10;99807.00;;;;10079406;29;20242;-81
2023/11/27 04:47:35;;;;;;;4.00;3.60;;;;;4.10;99788.00;;;;10069784;29;20239;-81
2023/11/27 04:52:36;;;;;;;8.87;5.53;;;;;4.20;99776.00;;;;10084715;29;20737;-81
2023/11/27 04:57:37;;;;;;;9.03;5.47;;;;;4.20;99758.00;;;;10088141;29;20295;-80
2023/11/27 05:02:39;;;;;;;7.67;4.63;;;;;4.30;99750.00;;;;10096594;29;20227;-80
2023/11/27 05:07:40;;;;;;;6.27;5.20;;;;;4.30;99744.00;;;;10067316;29;20227;-81
2023/11/27 05:12:42;;;;;;;9.60;5.60;;;;;4.30;99734.00;;;;10072239;29;20306;-81
2023/11/27 05:17:43;;;;;;;9.37;5.53;;;;;4.30;99714.00;;;;10085101;29;20219;-81
2023/11/27 05:22:44;;;;;;;8.03;5.13;;;;;4.30;99701.00;;;;10076689;29;20788;-82
2023/11/27 05:27:45;;;;;;;6.97;5.17;;;;;4.40;99699.00;;;;10078910;29;20628;-82
2023/11/27 05:32:47;;;;;;;8.73;5.53;;;;;4.40;99695.00;;;;10070128;29;20590;-82
2023/11/27 05:37:48;;;;;;;10.20;5.93;;;;;4.40;99683.00;;;;10094421;29;20225;-81
2023/11/27 05:42:49;;;;;;;10.43;6.53;;;;;4.40;99669.00;;;;10071967;29;20458;-81
2023/11/27 05:47:50;;;;;;;10.67;6.27;;;;;4.40;99672.00;;;;10110555;29;20702;-82
2023/11/27 05:52:52;;;;;;;13.03;6.80;;;;;4.50;99667.00;;;;10107398;29;20656;-82
2023/11/27 05:57:54;;;;;;;9.80;6.53;;;;;4.50;99647.00;;;;10065976;29;20291;-82
2023/11/27 06:02:55;;;;;;;10.30;6.30;;;;;4.60;99640.00;;;;10079646;29;20879;-82
2023/11/27 06:07:57;;;;;;;10.67;7.37;;;;;4.60;99628.00;;;;10077612;29;20852;-82
2023/11/27 06:12:58;;;;;;;6.83;4.73;;;;;4.60;99615.00;;;;10082526;29;20223;-82
2023/11/27 06:17:59;;;;;;;8.53;6.17;;;;;4.70;99595.00;;;;10082409;29;20231;-82
2023/11/27 06:23:01;;;;;;;8.03;6.33;;;;;4.70;99591.00;;;;10069107;29;20279;-83
2023/11/27 06:28:03;;;;;;;8.23;6.07;;;;;4.70;99589.00;;;;10079343;29;21032;-82
2023/11/27 06:33:04;;;;;;;8.00;4.67;;;;;4.70;99585.00;;;;10063373;29;20267;-83
2023/11/27 06:38:05;;;;;;;7.67;4.80;;;;;4.70;99578.00;;;;10062853;29;20239;-82
2023/11/27 06:43:06;;;;;;;6.47;5.17;;;;;4.70;99573.00;;;;10090516;29;20314;-82
2023/11/27 06:48:08;;;;;;;5.37;4.37;;;;;4.70;99557.00;;;;10068927;29;20224;-82
2023/11/27 06:53:09;;;;;;;5.33;4.40;;;;;4.70;99542.00;;;;10075896;29;20224;-83
2023/11/27 06:58:10;;;;;;;6.07;4.10;;;;;4.70;99542.00;;;;10078684;29;20223;-83
2023/11/27 07:03:12;;;;;;;7.57;4.80;;;;;4.70;99539.00;;;;10085401;29;20929;-84
2023/11/27 07:08:13;;;;;;;6.60;5.67;;;;;4.70;99533.00;;;;10084260;29;20959;-84
2023/11/27 07:13:14;;;;;;;8.37;5.10;;;;;4.70;99511.00;;;;10095108;29;20223;-82
2023/11/27 07:18:15;;;;;;;7.10;5.40;;;;;4.80;99525.00;;;;10082695;29;20315;-82
2023/11/27 07:23:22;;;;;;;8.93;5.03;;;;;4.80;99516.00;;;;10035843;29;20327;-85
2023/11/27 07:28:25;;;;;;;4.67;4.20;;;;;4.80;99494.00;;;;10065603;29;20877;-83
2023/11/27 07:33:27;;;;;;;4.03;2.77;;;;;4.80;99493.00;;;;10075863;29;20944;-82
2023/11/27 07:38:28;;;;;;;5.63;4.30;;;;;4.80;99486.00;;;;10060994;29;20327;-82
2023/11/27 07:43:29;;;;;;;5.17;4.37;;;;;4.80;99482.00;;;;10078515;29;20227;-83
2023/11/27 07:48:30;;;;;;;4.23;3.80;;;;;4.90;99478.00;;;;10068173;29;20228;-82
2023/11/27 07:53:32;;;;;;;5.33;3.03;;;;;4.80;99474.00;;;;10087631;29;20329;-82
2023/11/27 07:58:33;;;;;;;4.20;3.60;;;;;4.80;99460.00;;;;10064596;29;20746;-82
2023/11/27 08:03:35;;;;;;;3.00;2.70;;;;;4.90;99449.00;;;;10067646;29;20563;-80
2023/11/27 08:08:37;;;;;;;5.67;3.37;;;;;4.90;99445.00;;;;10075743;29;20224;-81
2023/11/27 08:13:43;;;;;;;3.97;3.50;;;;;4.90;99438.00;;;;10068056;29;20234;-81
2023/11/27 08:18:44;;;;;;;3.70;3.23;;;;;4.90;99429.00;;;;10079837;29;20282;-81
2023/11/27 08:23:45;;;;;;;3.50;2.83;;;;;4.90;99422.00;;;;10074016;29;20243;-85
2023/11/27 08:28:47;;;;;;;5.00;3.43;;;;;4.90;99417.00;;;;10064571;29;20354;-82
2023/11/27 08:33:48;;;;;;;4.80;3.27;;;;;5.00;99418.00;;;;10078312;29;20335;-86
2023/11/27 08:38:52;;;;;;;4.13;3.73;;;;;5.00;99404.00;;;;10087049;29;20228;-86
2023/11/27 08:43:53;;;;;;;4.27;3.17;;;;;5.00;99394.00;;;;10090260;29;20271;-87
2023/11/27 08:48:56;;;;;;;4.57;3.83;;;;;5.10;99383.00;;;;10230007;24;20219;-84
2023/11/27 08:54:08;;;;;;;4.43;4.03;;;;;5.10;99371.00;;;;9745077;23;20407;-88
2023/11/27 08:59:10;;;;;;;3.07;2.77;;;;;5.20;99371.00;;;;10097227;29;20255;-88
2023/11/27 09:04:11;;;;;;;5.17;3.40;;;;;5.20;99355.00;;;;10298069;23;20212;-83
2023/11/27 09:09:13;;;;;;;4.97;3.67;;;;;5.20;99358.00;;;;10537560;23;20292;-84
2023/11/27 09:14:14;;;;;;;2.83;2.57;;;;;5.20;99339.00;;;;10077940;29;20296;-86
2023/11/27 09:19:15;;;;;;;3.30;3.00;;;;;5.30;99323.00;;;;10055755;29;20259;-87
2023/11/27 09:24:17;;;;;;;3.63;2.70;;;;;5.40;99322.00;;;;10064944;29;20268;-86
2023/11/27 09:29:19;;;;;;;3.13;2.13;;;;;5.40;99316.00;;;;10039434;29;20285;-85
2023/11/27 09:34:20;;;;;;;2.63;1.77;;;;;5.40;99318.00;;;;10042271;29;20224;-85
2023/11/27 09:39:21;;;;;;;2.27;1.73;;;;;5.40;99308.00;;;;10056836;29;20271;-86
2023/11/27 09:44:23;;;;;;;2.33;1.90;;;;;5.40;99299.00;;;;10066952;29;20236;-86
2023/11/27 09:49:26;;;;;;;2.47;1.90;;;;;5.50;99289.00;;;;10050649;29;20236;-88
2023/11/27 09:54:32;;;;;;;2.10;1.40;;;;;5.50;99289.00;;;;10033066;29;20228;-87
2023/11/27 09:59:38;;;;;;;2.07;1.50;;;;;5.60;99269.00;;;;10030446;29;20250;-88
2023/11/27 10:04:42;;;;;;;2.00;1.63;;;;;5.70;99265.00;;;;10045207;29;20235;-84
2023/11/27 10:09:44;;;;;;;1.87;1.77;;;;;5.70;99250.00;;;;10028320;29;20877;-87
2023/11/27 10:14:45;;;;;;;1.37;1.27;;;;;5.60;99242.00;;;;10043887;29;20228;-85
2023/11/27 10:19:50;;;;;;;3.60;1.43;;;;;5.50;99230.00;;;;10055024;29;20239;-88
2023/11/27 10:24:52;;;;;;;2.73;2.17;;;;;5.50;99217.00;;;;10060911;29;20247;-86
2023/11/27 10:29:53;;;;;;;2.83;1.47;;;;;5.50;99213.00;;;;10107226;24;20216;-86
2023/11/27 10:34:55;;;;;;;3.03;1.90;;;;;5.50;99203.00;;;;10049132;29;20241;-87
2023/11/27 10:39:57;;;;;;;3.00;1.70;;;;;5.50;99207.00;;;;10038160;29;20236;-86
2023/11/27 10:44:59;;;;;;;2.00;1.80;;;;;5.60;99197.00;;;;10022018;29;20220;-85
2023/11/27 10:50:03;;;;;;;3.47;2.33;;;;;5.80;99174.00;;;;10038583;29;20778;-87
2023/11/27 10:55:06;;;;;;;3.27;2.23;;;;;5.80;99178.00;;;;10027664;29;20220;-88
2023/11/27 11:00:08;;;;;;;2.60;2.10;;;;;5.70;99167.00;;;;10039205;29;20238;-85
2023/11/27 11:05:14;;;;;;;3.27;2.47;;;;;5.70;99159.00;;;;10037001;29;20236;-88
2023/11/27 11:10:17;;;;;;;3.93;2.17;;;;;5.80;99143.00;;;;10027422;29;20239;-87
2023/11/27 11:15:31;;;;;;;2.57;2.23;;;;;5.90;99124.00;;;;10034048;29;20227;-87
2023/11/27 11:20:58;;;;;;;2.00;1.90;;;;;5.90;99113.00;;;;10060093;29;20220;-86
2023/11/27 11:26:43;;;;;;;2.77;2.07;;;;;6.00;99103.00;;;;10018392;29;20876;-85
2023/11/27 11:31:58;;;;;;;2.40;2.20;;;;;6.00;99094.00;;;;10025358;29;20236;-86
2023/11/27 11:37:00;;;;;;;3.30;1.93;;;;;6.00;99075.00;;;;10022343;29;20228;-84
2023/11/27 11:42:04;;;;;;;3.30;2.70;;;;;6.00;99069.00;;;;10021380;29;20684;-85
2023/11/27 11:47:26;;;;;;;2.70;1.90;;;;;6.10;99065.00;;;;10024722;29;20232;-86
2023/11/27 11:52:27;;;;;;;2.03;1.90;;;;;6.10;99053.00;;;;10045780;29;20244;-86
2023/11/27 11:57:31;;;;;;;3.10;2.80;;;;;6.10;99062.00;;;;10017434;29;20858;-87
2023/11/27 12:02:33;;;;;;;3.17;2.00;;;;;6.00;99042.00;;;;10025462;29;20254;-84
2023/11/27 12:07:37;;;;;;;2.63;2.03;;;;;6.10;99020.00;;;;10055316;29;20244;-85
2023/11/27 12:12:40;;;;;;;2.40;2.17;;;;;6.20;99007.00;;;;10038440;29;20229;-85
2023/11/27 12:17:48;;;;;;;2.13;1.93;;;;;6.20;98996.00;;;;10037291;29;20251;-86
2023/11/27 12:22:50;;;;;;;2.00;1.63;;;;;6.30;98979.00;;;;10058583;29;20204;-83
2023/11/27 12:27:51;;;;;;;2.13;1.90;;;;;6.30;98968.00;;;;10080776;29;20256;-83
2023/11/27 12:32:53;;;;;;;4.60;1.93;;;;;6.30;98963.00;;;;10056931;29;20232;-85
2023/11/27 12:37:54;;;;;;;2.50;2.30;;;;;6.30;98956.00;;;;10055209;29;20240;-84
2023/11/27 12:42:57;;;;;;;2.80;2.27;;;;;6.30;98951.00;;;;10028684;29;20260;-84
2023/11/27 12:48:06;;;;;;;3.13;2.20;;;;;6.30;98937.00;;;;10058015;29;20316;-83
2023/11/27 12:53:08;;;;;;;2.50;2.30;;;;;6.30;98931.00;;;;10023323;29;20239;-84
2023/11/27 12:58:12;;;;;;;2.27;2.07;;;;;6.30;98920.00;;;;10040483;29;20220;-84
2023/11/27 13:03:19;;;;;;;2.80;2.33;;;;;6.30;98905.00;;;;10024601;29;20228;-83
2023/11/27 13:08:25;;;;;;;2.67;2.27;;;;;6.30;98898.00;;;;10049179;29;20873;-83
2023/11/27 13:13:27;;;;;;;5.33;2.57;;;;;6.30;98896.00;;;;10031005;29;20224;-83
2023/11/27 13:18:30;;;;;;;2.30;2.03;;;;;6.30;98881.00;;;;10019885;29;20228;-84
2023/11/27 13:23:31;;;;;;;2.50;2.30;;;;;6.30;98885.00;;;;10049366;29;20255;-85
2023/11/27 13:28:32;;;;;;;3.23;2.60;;;;;6.30;98869.00;;;;10027946;29;20295;-82
2023/11/27 13:33:39;;;;;;;2.90;2.30;;;;;6.30;98856.00;;;;10033244;29;20231;-84
2023/11/27 13:38:40;;;;;;;5.23;2.13;;;;;6.30;98848.00;;;;10024802;29;20303;-84
2023/11/27 13:43:42;;;;;;;3.83;3.00;;;;;6.30;98840.00;;;;10013937;29;20251;-86
2023/11/27 13:48:43;;;;;;;2.80;2.50;;;;;6.30;98837.00;;;;10021760;29;20221;-84
2023/11/27 13:53:47;;;;;;;2.67;2.47;;;;;6.40;98829.00;;;;10033306;29;21145;-85
2023/11/27 13:58:54;;;;;;;4.50;3.53;;;;;6.30;98826.00;;;;10015452;29;20231;-85
2023/11/27 14:04:27;;;;;;;4.87;3.17;;;;;6.40;98817.00;;;;10037059;29;20288;-85
2023/11/27 14:14:37;;;;;;;5.37;3.90;;;;;6.40;98799.00;;;;10036345;29;20534;-85
2023/11/27 14:25:25;;;;;;;4.80;4.30;;;;;6.50;98783.00;;;;10033800;29;20233;-87
2023/11/27 14:30:22;;;;;;;8.07;4.90;;;;;6.60;98786.00;;;;10022728;29;20238;-85
2023/11/27 14:35:24;;;;;;;5.17;4.67;;;;;6.60;98778.00;;;;10027767;29;20299;-85
2023/11/27 14:40:30;;;;;;;5.77;4.87;;;;;6.70;98766.00;;;;10029951;29;20224;-86
2023/11/27 14:45:42;;;;;;;6.47;4.13;;;;;6.80;98763.00;;;;10022375;29;20229;-85
2023/11/27 14:50:43;;;;;;;5.90;4.53;;;;;6.80;98753.00;;;;10016349;29;20244;-87
2023/11/27 14:55:45;;;;;;;5.40;4.80;;;;;6.90;98749.00;;;;10030347;29;20252;-84
2023/11/27 15:00:51;;;;;;;5.03;4.53;;;;;6.90;98743.00;;;;10040758;29;20310;-84
2023/11/27 15:05:53;;;;;;;4.10;3.70;;;;;7.00;98720.00;;;;10051692;29;20224;-83
2023/11/27 15:10:54;;;;;;;5.27;4.10;;;;;7.00;98712.00;;;;10033896;29;20266;-83
2023/11/27 15:15:57;;;;;;;3.80;3.50;;;;;7.00;98714.00;;;;10040112;29;20276;-83
2023/11/27 15:20:59;;;;;;;6.43;3.97;;;;;7.10;98706.00;;;;10028815;29;20228;-85
2023/11/27 15:26:00;;;;;;;5.57;4.17;;;;;7.10;98703.00;;;;10065755;29;20220;-83
2023/11/27 15:31:02;;;;;;;4.27;3.93;;;;;7.10;98700.00;;;;10098521;29;20223;-83
2023/11/27 15:36:07;;;;;;;5.10;4.67;;;;;7.10;98697.00;;;;10039777;29;20224;-84
2023/11/27 15:41:12;;;;;;;5.93;4.70;;;;;7.20;98691.00;;;;10020091;29;20229;-83
2023/11/27 15:46:17;;;;;;;4.43;4.03;;;;;7.20;98685.00;;;;10041946;29;20228;-83
2023/11/27 15:51:19;;;;;;;5.53;5.03;;;;;7.20;98667.00;;;;10026351;29;20280;-84
2023/11/27 15:56:20;;;;;;;6.77;6.13;;;;;7.20;98657.00;;;;10041396;29;20228;-86
2023/11/27 16:01:23;;;;;;;10.53;7.07;;;;;7.30;98654.00;;;;10051422;29;20216;-89
2023/11/27 16:06:24;;;;;;;7.87;7.07;;;;;7.30;98660.00;;;;10050736;29;20239;-88
2023/11/27 16:11:26;;;;;;;8.53;7.63;;;;;7.30;98648.00;;;;10029793;29;20235;-88
2023/11/27 16:16:28;;;;;;;7.77;6.57;;;;;7.40;98655.00;;;;10042484;29;20224;-88
2023/11/27 16:21:29;;;;;;;7.33;6.63;;;;;7.30;98656.00;;;;10030789;29;20323;-87
2023/11/27 16:26:30;;;;;;;7.93;7.13;;;;;7.40;98655.00;;;;10042218;29;20232;-88
2023/11/27 16:31:32;;;;;;;9.37;8.33;;;;;7.40;98650.00;;;;10052544;29;20244;-89
2023/11/27 16:36:33;;;;;;;9.30;8.07;;;;;7.40;98635.00;;;;10034851;29;20235;-89
2023/11/27 16:41:35;;;;;;;10.87;9.27;;;;;7.50;98630.00;;;;10028489;29;20420;-85
2023/11/27 16:46:37;;;;;;;10.57;9.47;;;;;7.50;98614.00;;;;10058414;29;20216;-87
2023/11/27 16:51:39;;;;;;;11.63;10.43;;;;;7.60;98637.00;;;;10037272;29;20228;-88
2023/11/27 16:56:40;;;;;;;11.67;10.47;;;;;7.60;98640.00;;;;10035922;29;20288;-87
2023/11/27 17:01:41;;;;;;;11.77;10.37;;;;;7.70;98632.00;;;;10026934;29;20291;-85
2023/11/27 17:06:43;;;;;;;12.73;11.53;;;;;7.70;98648.00;;;;10032748;29;20261;-87
2023/11/27 17:11:48;;;;;;;13.53;12.13;;;;;7.70;98654.00;;;;10015136;29;20265;-85
2023/11/27 17:16:51;;;;;;;11.13;9.60;;;;;7.70;98658.00;;;;10037120;29;20224;-86
2023/11/27 17:21:52;;;;;;;13.53;9.40;;;;;7.60;98665.00;;;;10044900;29;20232;-85
2023/11/27 17:26:53;;;;;;;11.63;9.23;;;;;7.60;98669.00;;;;10052252;29;20221;-86
2023/11/27 17:31:56;;;;;;;9.87;7.83;;;;;7.60;98680.00;;;;10036800;29;20281;-85
2023/11/27 17:36:58;;;;;;;13.03;10.20;;;;;7.50;98678.00;;;;10026582;29;20252;-84
2023/11/27 17:41:59;;;;;;;12.97;10.17;;;;;7.40;98675.00;;;;10028875;29;20229;-84
2023/11/27 17:47:07;;;;;;;12.97;10.33;;;;;7.30;98691.00;;;;10041167;29;20651;-87
2023/11/27 17:52:08;;;;;;;18.10;12.97;;;;;7.30;98702.00;;;;10026342;29;20232;-87
2023/11/27 17:57:09;;;;;;;18.40;14.77;;;;;7.30;98689.00;;;;10023637;29;20858;-86
2023/11/27 18:02:11;;;;;;;16.10;13.27;;;;;7.20;98701.00;;;;10045012;29;20236;-84
2023/11/27 18:07:12;;;;;;;15.67;11.03;;;;;7.20;98697.00;;;;10061531;29;20224;-86
2023/11/27 18:12:14;;;;;;;12.53;10.07;;;;;7.10;98711.00;;;;10046168;29;20221;-86
2023/11/27 18:17:16;;;;;;;15.07;11.93;;;;;7.00;98708.00;;;;10044880;29;20641;-87
2023/11/27 18:22:17;;;;;;;13.07;11.07;;;;;7.00;98692.00;;;;10055483;29;20228;-87
2023/11/27 18:27:19;;;;;;;13.40;10.10;;;;;6.90;98703.00;;;;10021505;29;20224;-86
2023/11/27 18:32:22;;;;;;;11.83;9.83;;;;;6.90;98705.00;;;;10019067;29;20232;-84
2023/11/27 18:37:28;;;;;;;11.80;10.60;;;;;6.80;98715.00;;;;10045583;29;20200;-84
2023/11/27 18:42:30;;;;;;;12.97;10.20;;;;;6.80;98707.00;;;;10073886;29;20227;-83
2023/11/27 18:47:43;;;;;;;11.93;10.20;;;;;6.70;98706.00;;;;10057771;29;20240;-87
2023/11/27 18:52:44;;;;;;;16.43;12.30;;;;;6.70;98713.00;;;;10029205;29;20232;-86
2023/11/27 18:57:46;;;;;;;14.60;12.93;;;;;6.60;98717.00;;;;10020711;29;20307;-87
2023/11/27 19:02:51;;;;;;;16.43;12.47;;;;;6.60;98725.00;;;;10056984;29;20300;-87
2023/11/27 19:07:53;;;;;;;17.07;11.97;;;;;6.60;98728.00;;;;10031547;29;20216;-85
2023/11/27 19:12:54;;;;;;;14.20;11.00;;;;;6.50;98741.00;;;;10039663;29;20243;-85
2023/11/27 19:17:56;;;;;;;15.47;12.07;;;;;6.40;98730.00;;;;10027227;29;20228;-84
2023/11/27 19:28:53;;;;;;;13.90;11.40;;;;;6.30;98732.00;;;;11397623;23;20431;-90
2023/11/27 19:40:22;;;;;;;15.70;12.33;;;;;6.20;98748.00;;;;4007287;23;20503;-92
2023/11/27 19:45:24;;;;;;;15.60;10.77;;;;;6.10;98743.00;;;;11299971;23;20202;-87
2023/11/27 19:50:25;;;;;;;15.90;12.67;;;;;6.00;98746.00;;;;11074537;23;20326;-88
2023/11/27 19:55:33;;;;;;;18.13;13.67;;;;;6.00;98762.00;;;;11447284;23;20207;31
2023/11/27 20:00:54;;;;;;;17.77;13.43;;;;;5.90;98763.00;;;;11838474;23;20220;31
2023/11/27 20:05:56;;;;;;;11.50;8.50;;;;;5.80;98775.00;;;;10742242;23;20271;-88
2023/11/27 20:10:57;;;;;;;6.27;4.67;;;;;5.70;98778.00;;;;10562326;24;20294;-88
2023/11/27 20:16:23;;;;;;;9.00;7.00;;;;;5.60;98788.00;;;;10731716;23;20207;31
2023/11/27 20:22:11;;;;;;;7.93;5.27;;;;;5.50;98793.00;;;;6145536;23;20392;-88
2023/11/27 20:27:12;;;;;;;4.40;3.63;;;;;5.40;98801.00;;;;11310624;23;20257;-88
2023/11/27 21:16:08;;;;;;;4.73;3.93;;;;;4.60;98865.00;;;;3278819;23;20384;-85
2023/11/27 21:21:11;;;;;;;5.60;4.70;;;;;4.50;98874.00;;;;11287660;23;20245;-90
2023/11/27 21:32:03;;;;;;;5.37;4.07;;;;;4.30;98911.00;;;;10171197;29;20221;-84
2023/11/27 21:37:04;;;;;;;2.77;2.13;;;;;4.10;98914.00;;;;10147566;29;20203;-85
2023/11/27 21:42:06;;;;;;;3.57;3.00;;;;;3.90;98921.00;;;;10149898;29;20209;-85
2023/11/27 22:36:21;;;;;;;5.13;4.60;;;;;3.20;99003.00;;;;10852224;24;20409;-84
2023/11/27 22:41:22;;;;;;;5.53;4.67;;;;;3.20;99010.00;;;;10156293;29;20213;-84
2023/11/27 22:46:23;;;;;;;6.57;5.47;;;;;3.20;99024.00;;;;10153553;29;20202;-84
